sensor_id;sensor_type;location;lat;lon;timestamp;pressure;altitude;pressure_sealevel;temperature;humidity
53689;BME280;39583;54.682;30.662;2022-07-29T11:05:09;99962.94;;;22.79;55.68
53689;BME280;39583;54.682;30.662;2022-07-29T11:07:36;99965.56;;;22.60;55.40
53689;BME280;39583;54.682;30.662;2022-07-29T11:15:06;99970.66;;;22.37;56.36
53689;BME280;39583;54.682;30.662;2022-07-29T11:20:45;99962.38;;;22.03;56.70
53689;BME280;39583;54.682;30.662;2022-07-29T11:23:26;99961.28;;;21.99;56.59
53689;BME280;39583;54.682;30.662;2022-07-29T11:29:03;99958.75;;;22.13;56.71
53689;BME280;39583;54.682;30.662;2022-07-29T11:34:31;99958.81;;;22.47;56.57
53689;BME280;39583;54.682;30.662;2022-07-29T11:40:11;99955.50;;;22.84;55.63
53689;BME280;39583;54.682;30.662;2022-07-29T11:47:37;99938.44;;;22.87;54.40
53689;BME280;39583;54.682;30.662;2022-07-29T11:50:06;99942.09;;;23.07;53.66
53689;BME280;39583;54.682;30.662;2022-07-29T11:52:36;99932.16;;;23.11;53.73
53689;BME280;39583;54.682;30.662;2022-07-29T11:55:11;99936.44;;;23.22;53.21
53689;BME280;39583;54.682;30.662;2022-07-29T11:57:46;99932.09;;;23.40;52.34
53689;BME280;39583;54.682;30.662;2022-07-29T12:00:22;99929.47;;;23.53;51.98
53689;BME280;39583;54.682;30.662;2022-07-29T12:02:49;99937.56;;;23.45;52.14
53689;BME280;39583;54.682;30.662;2022-07-29T12:05:17;99938.69;;;23.44;52.01
53689;BME280;39583;54.682;30.662;2022-07-29T12:07:44;99933.44;;;23.42;51.90
53689;BME280;39583;54.682;30.662;2022-07-29T12:10:10;99939.22;;;23.41;51.54
53689;BME280;39583;54.682;30.662;2022-07-29T12:12:37;99939.63;;;23.53;51.44
53689;BME280;39583;54.682;30.662;2022-07-29T12:15:24;99934.81;;;23.45;51.28
53689;BME280;39583;54.682;30.662;2022-07-29T12:17:52;99946.50;;;23.08;51.07
53689;BME280;39583;54.682;30.662;2022-07-29T12:20:29;99945.31;;;22.56;51.73
53689;BME280;39583;54.682;30.662;2022-07-29T12:22:55;99952.16;;;22.19;52.72
53689;BME280;39583;54.682;30.662;2022-07-29T12:25:23;99950.63;;;21.93;53.15
53689;BME280;39583;54.682;30.662;2022-07-29T12:28:00;99949.81;;;21.87;53.08
53689;BME280;39583;54.682;30.662;2022-07-29T12:30:44;99944.56;;;22.06;52.75
53689;BME280;39583;54.682;30.662;2022-07-29T12:33:23;99941.94;;;22.25;51.21
53689;BME280;39583;54.682;30.662;2022-07-29T12:35:52;99949.16;;;22.50;50.73
53689;BME280;39583;54.682;30.662;2022-07-29T12:38:20;99958.31;;;22.74;49.45
53689;BME280;39583;54.682;30.662;2022-07-29T12:40:47;99945.38;;;22.80;48.88
53689;BME280;39583;54.682;30.662;2022-07-29T12:43:17;99942.63;;;22.80;48.66
53689;BME280;39583;54.682;30.662;2022-07-29T12:45:50;99937.63;;;22.87;48.76
53689;BME280;39583;54.682;30.662;2022-07-29T12:48:18;99946.03;;;23.24;48.74
53689;BME280;39583;54.682;30.662;2022-07-29T12:51:00;99944.31;;;23.52;48.02
53689;BME280;39583;54.682;30.662;2022-07-29T12:53:27;99937.09;;;23.62;48.32
53689;BME280;39583;54.682;30.662;2022-07-29T12:55:55;99946.91;;;23.68;48.26
53689;BME280;39583;54.682;30.662;2022-07-29T12:58:38;99940.47;;;23.53;47.55
53689;BME280;39583;54.682;30.662;2022-07-29T13:01:05;99947.69;;;22.97;48.99
53689;BME280;39583;54.682;30.662;2022-07-29T13:03:52;99948.13;;;22.46;50.20
53689;BME280;39583;54.682;30.662;2022-07-29T13:09:14;99951.41;;;22.03;51.19
53689;BME280;39583;54.682;30.662;2022-07-29T13:11:46;99945.94;;;22.43;50.78
53689;BME280;39583;54.682;30.662;2022-07-29T13:14:34;99946.28;;;22.65;48.67
53689;BME280;39583;54.682;30.662;2022-07-29T13:19:40;99933.78;;;22.88;46.24
53689;BME280;39583;54.682;30.662;2022-07-29T13:22:08;99937.03;;;22.90;46.50
53689;BME280;39583;54.682;30.662;2022-07-29T13:24:52;99944.47;;;22.89;47.41
53689;BME280;39583;54.682;30.662;2022-07-29T13:27:20;99949.91;;;22.94;47.49
53689;BME280;39583;54.682;30.662;2022-07-29T13:29:47;99945.28;;;22.90;47.75
53689;BME280;39583;54.682;30.662;2022-07-29T13:32:14;99942.50;;;22.95;47.14
53689;BME280;39583;54.682;30.662;2022-07-29T13:34:40;99947.19;;;22.94;46.48
53689;BME280;39583;54.682;30.662;2022-07-29T13:37:07;99948.13;;;23.09;46.50
53689;BME280;39583;54.682;30.662;2022-07-29T13:39:33;99943.94;;;22.87;45.94
53689;BME280;39583;54.682;30.662;2022-07-29T13:41:59;99949.50;;;22.43;46.98
53689;BME280;39583;54.682;30.662;2022-07-29T13:44:26;99948.88;;;22.12;47.66
53689;BME280;39583;54.682;30.662;2022-07-29T13:46:52;99943.03;;;21.79;48.33
53689;BME280;39583;54.682;30.662;2022-07-29T13:49:18;99944.59;;;21.96;48.90
53689;BME280;39583;54.682;30.662;2022-07-29T13:51:45;99953.66;;;22.41;48.00
53689;BME280;39583;54.682;30.662;2022-07-29T13:54:11;99943.56;;;22.65;46.94
53689;BME280;39583;54.682;30.662;2022-07-29T13:56:37;99940.72;;;22.75;46.32
53689;BME280;39583;54.682;30.662;2022-07-29T13:59:03;99943.16;;;22.82;46.44
53689;BME280;39583;54.682;30.662;2022-07-29T14:01:29;99949.03;;;22.99;45.87
53689;BME280;39583;54.682;30.662;2022-07-29T14:03:56;99941.63;;;23.00;45.09
53689;BME280;39583;54.682;30.662;2022-07-29T14:06:22;99950.00;;;23.13;44.74
53689;BME280;39583;54.682;30.662;2022-07-29T14:08:48;99942.75;;;23.22;44.78
53689;BME280;39583;54.682;30.662;2022-07-29T14:11:15;99942.28;;;23.15;44.37
53689;BME280;39583;54.682;30.662;2022-07-29T14:13:41;99934.28;;;23.19;44.09
53689;BME280;39583;54.682;30.662;2022-07-29T14:16:07;99939.13;;;23.27;44.67
53689;BME280;39583;54.682;30.662;2022-07-29T14:18:33;99940.72;;;23.33;44.22
53689;BME280;39583;54.682;30.662;2022-07-29T14:21:00;99929.53;;;23.24;44.53
53689;BME280;39583;54.682;30.662;2022-07-29T14:23:26;99941.81;;;23.08;44.77
53689;BME280;39583;54.682;30.662;2022-07-29T14:25:52;99946.88;;;22.96;44.43
53689;BME280;39583;54.682;30.662;2022-07-29T14:28:18;99941.78;;;22.84;44.55
53689;BME280;39583;54.682;30.662;2022-07-29T14:30:45;99946.19;;;22.80;44.54
53689;BME280;39583;54.682;30.662;2022-07-29T14:33:12;99932.53;;;22.70;44.34
53689;BME280;39583;54.682;30.662;2022-07-29T14:35:38;99943.59;;;22.60;44.22
53689;BME280;39583;54.682;30.662;2022-07-29T14:38:04;99929.63;;;22.27;44.82
53689;BME280;39583;54.682;30.662;2022-07-29T14:40:31;99937.03;;;22.22;44.48
53689;BME280;39583;54.682;30.662;2022-07-29T14:42:57;99944.16;;;22.23;44.42
53689;BME280;39583;54.682;30.662;2022-07-29T14:45:23;99942.78;;;22.25;44.27
53689;BME280;39583;54.682;30.662;2022-07-29T14:47:49;99936.75;;;22.23;44.50
53689;BME280;39583;54.682;30.662;2022-07-29T14:50:16;99935.91;;;22.28;44.72
53689;BME280;39583;54.682;30.662;2022-07-29T14:52:44;99945.72;;;22.34;43.87
53689;BME280;39583;54.682;30.662;2022-07-29T14:55:10;99927.72;;;22.23;44.29
53689;BME280;39583;54.682;30.662;2022-07-29T14:57:36;99940.47;;;22.37;44.20
53689;BME280;39583;54.682;30.662;2022-07-29T15:00:04;99947.06;;;22.42;44.66
53689;BME280;39583;54.682;30.662;2022-07-29T15:02:33;99947.34;;;22.40;44.11
53689;BME280;39583;54.682;30.662;2022-07-29T15:05:00;99937.75;;;22.37;43.95
53689;BME280;39583;54.682;30.662;2022-07-29T15:07:27;99933.94;;;22.33;43.55
53689;BME280;39583;54.682;30.662;2022-07-29T15:09:54;99930.13;;;22.29;43.31
53689;BME280;39583;54.682;30.662;2022-07-29T15:12:20;99933.19;;;22.28;43.26
53689;BME280;39583;54.682;30.662;2022-07-29T15:14:46;99919.75;;;22.21;43.46
53689;BME280;39583;54.682;30.662;2022-07-29T15:17:13;99931.28;;;22.23;43.32
53689;BME280;39583;54.682;30.662;2022-07-29T15:19:39;99925.53;;;22.20;43.42
53689;BME280;39583;54.682;30.662;2022-07-29T15:22:05;99928.28;;;22.20;43.56
53689;BME280;39583;54.682;30.662;2022-07-29T15:24:31;99923.38;;;22.17;43.08
53689;BME280;39583;54.682;30.662;2022-07-29T15:26:58;99928.06;;;22.11;43.14
53689;BME280;39583;54.682;30.662;2022-07-29T15:29:24;99937.69;;;22.08;43.64
53689;BME280;39583;54.682;30.662;2022-07-29T15:31:50;99931.63;;;22.12;43.94
53689;BME280;39583;54.682;30.662;2022-07-29T15:34:17;99934.13;;;22.08;43.55
53689;BME280;39583;54.682;30.662;2022-07-29T15:36:43;99931.38;;;22.03;43.80
53689;BME280;39583;54.682;30.662;2022-07-29T15:39:09;99931.13;;;21.99;43.75
53689;BME280;39583;54.682;30.662;2022-07-29T15:41:36;99931.91;;;22.15;43.87
53689;BME280;39583;54.682;30.662;2022-07-29T15:44:02;99934.34;;;22.51;43.36
53689;BME280;39583;54.682;30.662;2022-07-29T15:46:28;99931.56;;;23.14;42.20
53689;BME280;39583;54.682;30.662;2022-07-29T15:49:13;99926.78;;;23.91;40.86
53689;BME280;39583;54.682;30.662;2022-07-29T15:51:40;99929.00;;;24.64;39.48
53689;BME280;39583;54.682;30.662;2022-07-29T15:54:06;99921.16;;;25.45;38.54
53689;BME280;39583;54.682;30.662;2022-07-29T15:56:33;99920.25;;;26.00;37.39
53689;BME280;39583;54.682;30.662;2022-07-29T15:58:59;99919.44;;;26.35;36.88
53689;BME280;39583;54.682;30.662;2022-07-29T16:01:25;99917.22;;;26.68;36.42
53689;BME280;39583;54.682;30.662;2022-07-29T16:03:52;99931.03;;;27.22;36.48
53689;BME280;39583;54.682;30.662;2022-07-29T16:06:18;99918.69;;;27.68;35.37
53689;BME280;39583;54.682;30.662;2022-07-29T16:08:45;99929.44;;;27.78;35.21
53689;BME280;39583;54.682;30.662;2022-07-29T16:11:11;99930.09;;;27.83;35.29
53689;BME280;39583;54.682;30.662;2022-07-29T16:13:37;99924.75;;;28.13;35.38
53689;BME280;39583;54.682;30.662;2022-07-29T16:16:03;99924.94;;;28.34;34.53
53689;BME280;39583;54.682;30.662;2022-07-29T16:18:30;99924.63;;;28.27;34.42
53689;BME280;39583;54.682;30.662;2022-07-29T16:20:56;99925.91;;;28.46;34.55
53689;BME280;39583;54.682;30.662;2022-07-29T16:23:23;99933.41;;;28.55;34.13
53689;BME280;39583;54.682;30.662;2022-07-29T16:25:49;99925.59;;;28.39;34.28
53689;BME280;39583;54.682;30.662;2022-07-29T16:28:15;99934.88;;;28.52;34.42
53689;BME280;39583;54.682;30.662;2022-07-29T16:30:42;99934.16;;;28.72;33.76
53689;BME280;39583;54.682;30.662;2022-07-29T16:33:08;99932.53;;;28.71;33.80
53689;BME280;39583;54.682;30.662;2022-07-29T16:35:34;99927.00;;;28.63;34.25
53689;BME280;39583;54.682;30.662;2022-07-29T16:38:03;99925.66;;;28.77;34.36
53689;BME280;39583;54.682;30.662;2022-07-29T16:40:30;99936.41;;;29.05;34.19
53689;BME280;39583;54.682;30.662;2022-07-29T16:42:56;99925.16;;;29.40;33.82
53689;BME280;39583;54.682;30.662;2022-07-29T16:45:22;99928.72;;;29.40;33.79
53689;BME280;39583;54.682;30.662;2022-07-29T16:47:49;99911.19;;;28.63;34.31
53689;BME280;39583;54.682;30.662;2022-07-29T16:50:15;99930.66;;;26.84;36.88
53689;BME280;39583;54.682;30.662;2022-07-29T16:52:41;99934.94;;;25.18;39.69
53689;BME280;39583;54.682;30.662;2022-07-29T16:55:08;99933.78;;;24.02;41.51
53689;BME280;39583;54.682;30.662;2022-07-29T16:57:34;99942.78;;;23.17;42.79
53689;BME280;39583;54.682;30.662;2022-07-29T17:00:00;99944.78;;;22.54;44.32
53689;BME280;39583;54.682;30.662;2022-07-29T17:02:26;99945.63;;;22.05;45.58
53689;BME280;39583;54.682;30.662;2022-07-29T17:04:53;99935.69;;;21.70;46.66
53689;BME280;39583;54.682;30.662;2022-07-29T17:07:19;99936.53;;;21.60;46.88
53689;BME280;39583;54.682;30.662;2022-07-29T17:09:45;99940.09;;;21.66;47.11
53689;BME280;39583;54.682;30.662;2022-07-29T17:12:12;99936.31;;;21.46;47.73
53689;BME280;39583;54.682;30.662;2022-07-29T17:14:38;99941.47;;;21.58;47.91
53689;BME280;39583;54.682;30.662;2022-07-29T17:17:04;99941.13;;;22.29;47.16
53689;BME280;39583;54.682;30.662;2022-07-29T17:19:34;99944.09;;;23.73;45.21
53689;BME280;39583;54.682;30.662;2022-07-29T17:22:02;99939.25;;;24.91;43.51
53689;BME280;39583;54.682;30.662;2022-07-29T17:24:29;99948.22;;;25.29;42.98
53689;BME280;39583;54.682;30.662;2022-07-29T17:26:55;99955.66;;;25.29;43.92
53689;BME280;39583;54.682;30.662;2022-07-29T17:29:21;99950.47;;;24.95;45.19
53689;BME280;39583;54.682;30.662;2022-07-29T17:31:48;99957.28;;;24.32;46.46
53689;BME280;39583;54.682;30.662;2022-07-29T17:34:14;99959.53;;;23.21;48.84
53689;BME280;39583;54.682;30.662;2022-07-29T17:36:40;99951.94;;;22.00;51.20
53689;BME280;39583;54.682;30.662;2022-07-29T17:39:08;99951.50;;;20.98;53.67
53689;BME280;39583;54.682;30.662;2022-07-29T17:41:36;99956.38;;;20.15;55.61
53689;BME280;39583;54.682;30.662;2022-07-29T17:44:03;99958.06;;;19.48;57.14
53689;BME280;39583;54.682;30.662;2022-07-29T17:46:29;99959.38;;;18.93;58.49
53689;BME280;39583;54.682;30.662;2022-07-29T17:48:56;99960.63;;;18.48;59.80
53689;BME280;39583;54.682;30.662;2022-07-29T17:51:24;99955.34;;;18.10;61.08
53689;BME280;39583;54.682;30.662;2022-07-29T17:53:50;99962.91;;;17.76;61.85
53689;BME280;39583;54.682;30.662;2022-07-29T17:56:17;99950.78;;;17.45;62.82
53689;BME280;39583;54.682;30.662;2022-07-29T17:58:44;99958.03;;;17.17;63.43
53689;BME280;39583;54.682;30.662;2022-07-29T18:01:13;99954.94;;;16.92;64.10
53689;BME280;39583;54.682;30.662;2022-07-29T18:03:40;99949.72;;;16.68;64.89
53689;BME280;39583;54.682;30.662;2022-07-29T18:06:06;99952.06;;;16.48;65.25
53689;BME280;39583;54.682;30.662;2022-07-29T18:08:33;99956.31;;;16.27;65.96
53689;BME280;39583;54.682;30.662;2022-07-29T18:11:00;99953.25;;;16.07;66.31
53689;BME280;39583;54.682;30.662;2022-07-29T18:13:26;99956.63;;;15.85;67.03
53689;BME280;39583;54.682;30.662;2022-07-29T18:15:53;99961.66;;;15.65;67.54
53689;BME280;39583;54.682;30.662;2022-07-29T18:18:20;99956.38;;;15.47;68.24
53689;BME280;39583;54.682;30.662;2022-07-29T18:20:47;99959.09;;;15.35;68.53
53689;BME280;39583;54.682;30.662;2022-07-29T18:23:13;99945.34;;;15.13;68.90
53689;BME280;39583;54.682;30.662;2022-07-29T18:25:40;99963.63;;;15.06;69.38
53689;BME280;39583;54.682;30.662;2022-07-29T18:28:07;99955.50;;;14.94;69.56
53689;BME280;39583;54.682;30.662;2022-07-29T18:30:34;99962.78;;;14.82;70.09
53689;BME280;39583;54.682;30.662;2022-07-29T18:33:04;99963.16;;;14.74;70.49
53689;BME280;39583;54.682;30.662;2022-07-29T18:35:31;99971.63;;;14.66;70.74
53689;BME280;39583;54.682;30.662;2022-07-29T18:37:57;99976.69;;;14.51;70.91
53689;BME280;39583;54.682;30.662;2022-07-29T18:40:24;99978.75;;;14.37;71.28
53689;BME280;39583;54.682;30.662;2022-07-29T18:42:51;99977.53;;;14.21;71.49
53689;BME280;39583;54.682;30.662;2022-07-29T18:45:18;99983.25;;;14.13;71.93
53689;BME280;39583;54.682;30.662;2022-07-29T18:47:44;99969.91;;;14.00;72.10
53689;BME280;39583;54.682;30.662;2022-07-29T18:50:10;99980.59;;;13.95;72.58
53689;BME280;39583;54.682;30.662;2022-07-29T18:52:37;99974.91;;;13.84;72.93
53689;BME280;39583;54.682;30.662;2022-07-29T18:55:03;99980.63;;;13.76;73.34
53689;BME280;39583;54.682;30.662;2022-07-29T18:57:30;99985.06;;;13.71;73.68
53689;BME280;39583;54.682;30.662;2022-07-29T18:59:57;99991.53;;;13.70;73.90
53689;BME280;39583;54.682;30.662;2022-07-29T19:02:23;99982.00;;;13.67;74.18
53689;BME280;39583;54.682;30.662;2022-07-29T19:04:49;99974.78;;;13.61;74.19
53689;BME280;39583;54.682;30.662;2022-07-29T19:07:18;99976.97;;;13.52;74.28
